PWSweather.com
Personal Weather Stations
Station Observations
KMIEASTT1
Tawas Bay, East Tawas, MI 48730

Tawas BayEast Tawas, MI 48730

Lat: 44.28, Lon: -83.48

Elevation: 600

Station Type: Davis VantagePro

http://www.tawasbayweather.com

High Low Average
Temperature 39.4°F4.1°C 30.6°F-0.8°C 34.0°F1.1°C
Dew Point 34.7°F1.5°C 27.1°F-2.7°C 31.3°F-0.4°C
Winds 14.0 mph 22.5 kmh Calm Calm 5.0 mph S8.0 kmh S
Wind Gusts 20.0 mph32.2 kmh -- 7.0 mph11.3 kmh
Humidity 96% 79% 90%
Pressure 30.26 in1024.7 mb 30.00 in1015.9 mb -
Precipitation 0.00 in0.0 mm - -
Hour Temp Dew Point Humidity Winds Wind Gusts Pressure Precip Precip Rate Daily Precip Total
12:00 AM 34.1°F1.2°C 28.3°F-2.1°C 79% 2.0 mph WSW3.2 kmh WSW 4.0 mph6.4 kmh 30.27 in1025.1 mb 0.00 in0.0 mm 0.00 in0.0 mm 0.00 in0.0 mm
12:15 AM 33.3°F0.7°C 28.1°F-2.2°C 81% 2.0 mph WSW3.2 kmh WSW 5.0 mph8.0 kmh 30.27 in1025.1 mb 0.00 in0.0 mm 0.00 in0.0 mm 0.00 in0.0 mm
12:30 AM 33.3°F0.7°C 28.1°F-2.2°C 81% 3.0 mph WSW4.8 kmh WSW 5.0 mph8.0 kmh 30.26 in1024.7 mb 0.00 in0.0 mm 0.00 in0.0 mm 0.00 in0.0 mm
12:45 AM 33.7°F0.9°C 27.9°F-2.3°C 79% 4.0 mph WSW6.4 kmh WSW 7.0 mph11.3 kmh 30.26 in1024.7 mb 0.00 in0.0 mm 0.00 in0.0 mm 0.00 in0.0 mm
01:00 AM 33.5°F0.8°C 27.7°F-2.4°C 79% 4.0 mph WSW6.4 kmh WSW 5.0 mph8.0 kmh 30.26 in1024.7 mb 0.00 in0.0 mm 0.00 in0.0 mm 0.00 in0.0 mm
01:15 AM 32.9°F0.5°C 27.4°F-2.6°C 80% 1.0 mph WSW1.6 kmh WSW 4.0 mph6.4 kmh 30.25 in1024.4 mb 0.00 in0.0 mm 0.00 in0.0 mm 0.00 in0.0 mm
01:30 AM 32.4°F0.2°C 27.2°F-2.7°C 81% Calm Calm -- 30.25 in1024.4 mb 0.00 in0.0 mm 0.00 in0.0 mm 0.00 in0.0 mm
01:45 AM 32.5°F0.3°C 27.6°F-2.4°C 82% Calm Calm -- 30.25 in1024.4 mb 0.00 in0.0 mm 0.00 in0.0 mm 0.00 in0.0 mm
02:00 AM 32.4°F0.2°C 27.8°F-2.3°C 83% Calm Calm -- 30.24 in1024.0 mb 0.00 in0.0 mm 0.00 in0.0 mm 0.00 in0.0 mm
02:15 AM 32.3°F0.2°C 28.0°F-2.2°C 84% Calm Calm -- 30.24 in1024.0 mb 0.00 in0.0 mm 0.00 in0.0 mm 0.00 in0.0 mm
02:30 AM 32.0°F0.0°C 28.0°F-2.2°C 85% 1.0 mph SSW1.6 kmh SSW 2.0 mph3.2 kmh 30.24 in1024.0 mb 0.00 in0.0 mm 0.00 in0.0 mm 0.00 in0.0 mm
02:45 AM 32.0°F0.0°C 28.3°F-2.1°C 86% Calm Calm -- 30.24 in1024.0 mb 0.00 in0.0 mm 0.00 in0.0 mm 0.00 in0.0 mm
03:00 AM 32.3°F0.2°C 28.6°F-1.9°C 86% Calm Calm -- 30.23 in1023.7 mb 0.00 in0.0 mm 0.00 in0.0 mm 0.00 in0.0 mm
03:15 AM 32.6°F0.3°C 28.9°F-1.7°C 86% Calm Calm -- 30.22 in1023.4 mb 0.00 in0.0 mm 0.00 in0.0 mm 0.00 in0.0 mm
03:30 AM 32.8°F0.4°C 29.1°F-1.6°C 86% Calm Calm -- 30.22 in1023.4 mb 0.00 in0.0 mm 0.00 in0.0 mm 0.00 in0.0 mm
03:45 AM 32.5°F0.3°C 29.1°F-1.6°C 87% Calm Calm -- 30.22 in1023.4 mb 0.00 in0.0 mm 0.00 in0.0 mm 0.00 in0.0 mm
04:00 AM 31.8°F-0.1°C 28.4°F-2.0°C 87% 1.0 mph SSW1.6 kmh SSW 3.0 mph4.8 kmh 30.21 in1023.0 mb 0.00 in0.0 mm 0.00 in0.0 mm 0.00 in0.0 mm
04:15 AM 31.1°F-0.5°C 27.7°F-2.4°C 87% 1.0 mph SW1.6 kmh SW 2.0 mph3.2 kmh 30.20 in1022.7 mb 0.00 in0.0 mm 0.00 in0.0 mm 0.00 in0.0 mm
04:30 AM 31.3°F-0.4°C 27.6°F-2.4°C 86% 3.0 mph SW4.8 kmh SW 6.0 mph9.7 kmh 30.20 in1022.7 mb 0.00 in0.0 mm 0.00 in0.0 mm 0.00 in0.0 mm
04:45 AM 30.8°F-0.7°C 27.1°F-2.7°C 86% 1.0 mph SW1.6 kmh SW 2.0 mph3.2 kmh 30.20 in1022.7 mb 0.00 in0.0 mm 0.00 in0.0 mm 0.00 in0.0 mm
05:00 AM 30.8°F-0.7°C 27.4°F-2.6°C 87% 1.0 mph SW1.6 kmh SW 3.0 mph4.8 kmh 30.19 in1022.4 mb 0.00 in0.0 mm 0.00 in0.0 mm 0.00 in0.0 mm
05:15 AM 30.8°F-0.7°C 27.4°F-2.6°C 87% 2.0 mph SW3.2 kmh SW 3.0 mph4.8 kmh 30.19 in1022.4 mb 0.00 in0.0 mm 0.00 in0.0 mm 0.00 in0.0 mm
05:30 AM 30.7°F-0.7°C 27.3°F-2.6°C 87% Calm Calm 1.0 mph1.6 kmh 30.18 in1022.0 mb 0.00 in0.0 mm 0.00 in0.0 mm 0.00 in0.0 mm
05:45 AM 30.6°F-0.8°C 27.2°F-2.7°C 87% Calm Calm -- 30.18 in1022.0 mb 0.00 in0.0 mm 0.00 in0.0 mm 0.00 in0.0 mm
06:00 AM 31.1°F-0.5°C 27.7°F-2.4°C 87% 5.0 mph SSW8.0 kmh SSW 5.0 mph8.0 kmh 30.17 in1021.7 mb 0.00 in0.0 mm 0.00 in0.0 mm 0.00 in0.0 mm
06:15 AM 31.6°F-0.2°C 27.9°F-2.3°C 86% 5.0 mph SSW8.0 kmh SSW 7.0 mph11.3 kmh 30.17 in1021.7 mb 0.00 in0.0 mm 0.00 in0.0 mm 0.00 in0.0 mm
06:30 AM 31.5°F-0.3°C 27.8°F-2.3°C 86% 6.0 mph SSW9.7 kmh SSW 7.0 mph11.3 kmh 30.15 in1021.0 mb 0.00 in0.0 mm 0.00 in0.0 mm 0.00 in0.0 mm
06:45 AM 31.4°F-0.3°C 28.0°F-2.2°C 87% 6.0 mph SSW9.7 kmh SSW 7.0 mph11.3 kmh 30.14 in1020.7 mb 0.00 in0.0 mm 0.00 in0.0 mm 0.00 in0.0 mm
07:00 AM 31.2°F-0.4°C 27.8°F-2.3°C 87% 5.0 mph SSW8.0 kmh SSW 7.0 mph11.3 kmh 30.14 in1020.7 mb 0.00 in0.0 mm 0.00 in0.0 mm 0.00 in0.0 mm
07:15 AM 31.2°F-0.4°C 28.1°F-2.2°C 88% 5.0 mph SSW8.0 kmh SSW 7.0 mph11.3 kmh 30.14 in1020.7 mb 0.00 in0.0 mm 0.00 in0.0 mm 0.00 in0.0 mm
07:30 AM 31.0°F-0.6°C 27.6°F-2.4°C 87% 2.0 mph SSW3.2 kmh SSW 5.0 mph8.0 kmh 30.14 in1020.7 mb 0.00 in0.0 mm 0.00 in0.0 mm 0.00 in0.0 mm
07:45 AM 30.9°F-0.6°C 27.8°F-2.3°C 88% Calm Calm 1.0 mph1.6 kmh 30.14 in1020.7 mb 0.00 in0.0 mm 0.00 in0.0 mm 0.00 in0.0 mm
08:00 AM 31.3°F-0.4°C 28.2°F-2.1°C 88% Calm Calm 2.0 mph3.2 kmh 30.15 in1021.0 mb 0.00 in0.0 mm 0.00 in0.0 mm 0.00 in0.0 mm
08:15 AM 31.6°F-0.2°C 28.5°F-1.9°C 88% 2.0 mph SSW3.2 kmh SSW 3.0 mph4.8 kmh 30.15 in1021.0 mb 0.00 in0.0 mm 0.00 in0.0 mm 0.00 in0.0 mm
08:30 AM 31.9°F-0.1°C 29.0°F-1.7°C 89% 4.0 mph S6.4 kmh S 6.0 mph9.7 kmh 30.15 in1021.0 mb 0.00 in0.0 mm 0.00 in0.0 mm 0.00 in0.0 mm
08:45 AM 32.2°F0.1°C 29.3°F-1.5°C 89% 6.0 mph S9.7 kmh S 7.0 mph11.3 kmh 30.14 in1020.7 mb 0.00 in0.0 mm 0.00 in0.0 mm 0.00 in0.0 mm
09:00 AM 32.5°F0.3°C 29.6°F-1.3°C 89% 3.0 mph S4.8 kmh S 6.0 mph9.7 kmh 30.14 in1020.7 mb 0.00 in0.0 mm 0.00 in0.0 mm 0.00 in0.0 mm
09:15 AM 32.7°F0.4°C 30.1°F-1.1°C 90% 4.0 mph SSE6.4 kmh SSE 6.0 mph9.7 kmh 30.14 in1020.7 mb 0.00 in0.0 mm 0.00 in0.0 mm 0.00 in0.0 mm
09:30 AM 33.1°F0.6°C 30.2°F-1.0°C 89% 4.0 mph S6.4 kmh S 6.0 mph9.7 kmh 30.13 in1020.3 mb 0.00 in0.0 mm 0.00 in0.0 mm 0.00 in0.0 mm
09:45 AM 33.3°F0.7°C 30.4°F-0.9°C 89% 4.0 mph SSE6.4 kmh SSE 8.0 mph12.9 kmh 30.13 in1020.3 mb 0.00 in0.0 mm 0.00 in0.0 mm 0.00 in0.0 mm
10:00 AM 34.0°F1.1°C 30.8°F-0.7°C 88% 8.0 mph S12.9 kmh S 10.0 mph16.1 kmh 30.13 in1020.3 mb 0.00 in0.0 mm 0.00 in0.0 mm 0.00 in0.0 mm
10:15 AM 34.4°F1.3°C 30.9°F-0.6°C 87% 9.0 mph S14.5 kmh S 11.0 mph17.7 kmh 30.12 in1020.0 mb 0.00 in0.0 mm 0.00 in0.0 mm 0.00 in0.0 mm
10:30 AM 34.8°F1.6°C 31.3°F-0.4°C 87% 8.0 mph S12.9 kmh S 12.0 mph19.3 kmh 30.12 in1020.0 mb 0.00 in0.0 mm 0.00 in0.0 mm 0.00 in0.0 mm
10:45 AM 35.1°F1.7°C 31.3°F-0.4°C 86% 9.0 mph S14.5 kmh S 11.0 mph17.7 kmh 30.11 in1019.6 mb 0.00 in0.0 mm 0.00 in0.0 mm 0.00 in0.0 mm
11:00 AM 35.4°F1.9°C 31.6°F-0.2°C 86% 11.0 mph S17.7 kmh S 12.0 mph19.3 kmh 30.11 in1019.6 mb 0.00 in0.0 mm 0.00 in0.0 mm 0.00 in0.0 mm
11:15 AM 35.7°F2.1°C 31.9°F-0.1°C 86% 9.0 mph S14.5 kmh S 11.0 mph17.7 kmh 30.11 in1019.6 mb 0.00 in0.0 mm 0.00 in0.0 mm 0.00 in0.0 mm
11:30 AM 35.9°F2.2°C 31.8°F-0.1°C 85% 5.0 mph SSE8.0 kmh SSE 10.0 mph16.1 kmh 30.10 in1019.3 mb 0.00 in0.0 mm 0.00 in0.0 mm 0.00 in0.0 mm
11:45 AM 35.7°F2.1°C 31.9°F-0.1°C 86% 7.0 mph S11.3 kmh S 13.0 mph20.9 kmh 30.10 in1019.3 mb 0.00 in0.0 mm 0.00 in0.0 mm 0.00 in0.0 mm
12:00 PM 35.6°F2.0°C 32.1°F0.1°C 87% 6.0 mph S9.7 kmh S 10.0 mph16.1 kmh 30.09 in1019.0 mb 0.00 in0.0 mm 0.00 in0.0 mm 0.00 in0.0 mm
12:15 PM 35.6°F2.0°C 32.1°F0.1°C 87% 8.0 mph S12.9 kmh S 10.0 mph16.1 kmh 30.09 in1019.0 mb 0.00 in0.0 mm 0.00 in0.0 mm 0.00 in0.0 mm
12:30 PM 35.7°F2.1°C 32.2°F0.1°C 87% 12.0 mph S19.3 kmh S 13.0 mph20.9 kmh 30.08 in1018.6 mb 0.00 in0.0 mm 0.00 in0.0 mm 0.00 in0.0 mm
12:45 PM 35.6°F2.0°C 32.4°F0.2°C 88% 11.0 mph S17.7 kmh S 14.0 mph22.5 kmh 30.08 in1018.6 mb 0.00 in0.0 mm 0.00 in0.0 mm 0.00 in0.0 mm
01:00 PM 35.9°F2.2°C 32.4°F0.2°C 87% 10.0 mph S16.1 kmh S 12.0 mph19.3 kmh 30.08 in1018.6 mb 0.00 in0.0 mm 0.00 in0.0 mm 0.00 in0.0 mm
01:15 PM 35.6°F2.0°C 32.4°F0.2°C 88% 9.0 mph SSE14.5 kmh SSE 11.0 mph17.7 kmh 30.08 in1018.6 mb 0.00 in0.0 mm 0.00 in0.0 mm 0.00 in0.0 mm
01:30 PM 35.4°F1.9°C 32.5°F0.3°C 89% 8.0 mph S12.9 kmh S 13.0 mph20.9 kmh 30.07 in1018.3 mb 0.00 in0.0 mm 0.00 in0.0 mm 0.00 in0.0 mm
01:45 PM 35.8°F2.1°C 32.9°F0.5°C 89% 12.0 mph S19.3 kmh S 14.0 mph22.5 kmh 30.07 in1018.3 mb 0.00 in0.0 mm 0.00 in0.0 mm 0.00 in0.0 mm
02:00 PM 35.8°F2.1°C 32.9°F0.5°C 89% 10.0 mph S16.1 kmh S 13.0 mph20.9 kmh 30.07 in1018.3 mb 0.00 in0.0 mm 0.00 in0.0 mm 0.00 in0.0 mm
02:15 PM 36.0°F2.2°C 33.1°F0.6°C 89% 8.0 mph SSE12.9 kmh SSE 11.0 mph17.7 kmh 30.06 in1017.9 mb 0.00 in0.0 mm 0.00 in0.0 mm 0.00 in0.0 mm
02:30 PM 36.5°F2.5°C 33.6°F0.9°C 89% 9.0 mph S14.5 kmh S 14.0 mph22.5 kmh 30.06 in1017.9 mb 0.00 in0.0 mm 0.00 in0.0 mm 0.00 in0.0 mm
02:45 PM 37.2°F2.9°C 33.7°F0.9°C 87% 9.0 mph S14.5 kmh S 13.0 mph20.9 kmh 30.05 in1017.6 mb 0.00 in0.0 mm 0.00 in0.0 mm 0.00 in0.0 mm
03:00 PM 38.0°F3.3°C 34.2°F1.2°C 86% 13.0 mph S20.9 kmh S 15.0 mph24.1 kmh 30.05 in1017.6 mb 0.00 in0.0 mm 0.00 in0.0 mm 0.00 in0.0 mm
03:15 PM 39.4°F4.1°C 34.4°F1.3°C 82% 9.0 mph SSW14.5 kmh SSW 16.0 mph25.7 kmh 30.04 in1017.3 mb 0.00 in0.0 mm 0.00 in0.0 mm 0.00 in0.0 mm
03:30 PM 38.5°F3.6°C 33.5°F0.8°C 82% 8.0 mph S12.9 kmh S 14.0 mph22.5 kmh 30.04 in1017.3 mb 0.00 in0.0 mm 0.00 in0.0 mm 0.00 in0.0 mm
03:45 PM 36.1°F2.3°C 32.9°F0.5°C 88% 8.0 mph S12.9 kmh S 10.0 mph16.1 kmh 30.04 in1017.3 mb 0.00 in0.0 mm 0.00 in0.0 mm 0.00 in0.0 mm
04:00 PM 37.0°F2.8°C 33.5°F0.8°C 87% 8.0 mph S12.9 kmh S 15.0 mph24.1 kmh 30.04 in1017.3 mb 0.00 in0.0 mm 0.00 in0.0 mm 0.00 in0.0 mm
04:15 PM 36.3°F2.4°C 33.7°F0.9°C 90% 13.0 mph S20.9 kmh S 20.0 mph32.2 kmh 30.04 in1017.3 mb 0.00 in0.0 mm 0.00 in0.0 mm 0.00 in0.0 mm
04:30 PM 35.6°F2.0°C 33.5°F0.8°C 92% 14.0 mph S22.5 kmh S 17.0 mph27.4 kmh 30.04 in1017.3 mb 0.00 in0.0 mm 0.00 in0.0 mm 0.00 in0.0 mm
04:45 PM 35.3°F1.8°C 33.5°F0.8°C 93% 12.0 mph S19.3 kmh S 16.0 mph25.7 kmh 30.04 in1017.3 mb 0.00 in0.0 mm 0.00 in0.0 mm 0.00 in0.0 mm
05:00 PM 35.0°F1.7°C 33.2°F0.7°C 93% 8.0 mph S12.9 kmh S 14.0 mph22.5 kmh 30.04 in1017.3 mb 0.00 in0.0 mm 0.00 in0.0 mm 0.00 in0.0 mm
05:15 PM 35.0°F1.7°C 33.5°F0.8°C 94% 9.0 mph S14.5 kmh S 15.0 mph24.1 kmh 30.03 in1016.9 mb 0.00 in0.0 mm 0.00 in0.0 mm 0.00 in0.0 mm
05:30 PM 34.7°F1.5°C 33.4°F0.8°C 95% 11.0 mph S17.7 kmh S 12.0 mph19.3 kmh 30.03 in1016.9 mb 0.00 in0.0 mm 0.00 in0.0 mm 0.00 in0.0 mm
05:45 PM 34.6°F1.4°C 33.3°F0.7°C 95% 8.0 mph S12.9 kmh S 11.0 mph17.7 kmh 30.03 in1016.9 mb 0.00 in0.0 mm 0.00 in0.0 mm 0.00 in0.0 mm
06:00 PM 34.5°F1.4°C 33.2°F0.7°C 95% 7.0 mph SSW11.3 kmh SSW 8.0 mph12.9 kmh 30.03 in1016.9 mb 0.00 in0.0 mm 0.00 in0.0 mm 0.00 in0.0 mm
06:15 PM 34.7°F1.5°C 33.4°F0.8°C 95% 5.0 mph SSW8.0 kmh SSW 9.0 mph14.5 kmh 30.03 in1016.9 mb 0.00 in0.0 mm 0.00 in0.0 mm 0.00 in0.0 mm
06:30 PM 34.8°F1.6°C 33.5°F0.8°C 95% 6.0 mph S9.7 kmh S 8.0 mph12.9 kmh 30.03 in1016.9 mb 0.01 in0.3 mm 0.04 in1.0 mm 0.01 in0.3 mm
06:45 PM 34.8°F1.6°C 33.5°F0.8°C 95% 6.0 mph S9.7 kmh S 8.0 mph12.9 kmh 30.03 in1016.9 mb 0.01 in0.3 mm 0.00 in0.0 mm 0.01 in0.3 mm
07:00 PM 34.7°F1.5°C 33.4°F0.8°C 95% 6.0 mph S9.7 kmh S 9.0 mph14.5 kmh 30.04 in1017.3 mb 0.02 in0.5 mm 0.01 in0.3 mm 0.02 in0.5 mm
07:15 PM 34.4°F1.3°C 33.1°F0.6°C 95% 6.0 mph S9.7 kmh S 8.0 mph12.9 kmh 30.04 in1017.3 mb 0.03 in0.8 mm 0.04 in1.0 mm 0.03 in0.8 mm
07:30 PM 34.3°F1.3°C 33.3°F0.7°C 96% 4.0 mph S6.4 kmh S 7.0 mph11.3 kmh 30.03 in1016.9 mb 0.02 in0.5 mm 0.00 in0.0 mm 0.03 in0.8 mm
07:45 PM 34.3°F1.3°C 33.3°F0.7°C 96% 5.0 mph S8.0 kmh S 9.0 mph14.5 kmh 30.03 in1016.9 mb 0.02 in0.5 mm 0.00 in0.0 mm 0.03 in0.8 mm
08:00 PM 34.1°F1.2°C 33.1°F0.6°C 96% 5.0 mph S8.0 kmh S 8.0 mph12.9 kmh 30.03 in1016.9 mb 0.02 in0.5 mm 0.00 in0.0 mm 0.03 in0.8 mm
08:15 PM 34.1°F1.2°C 33.1°F0.6°C 96% 8.0 mph S12.9 kmh S 9.0 mph14.5 kmh 30.03 in1016.9 mb 0.02 in0.5 mm 0.00 in0.0 mm 0.03 in0.8 mm
08:30 PM 33.9°F1.1°C 32.9°F0.5°C 96% 4.0 mph S6.4 kmh S 7.0 mph11.3 kmh 30.03 in1016.9 mb 0.02 in0.5 mm 0.00 in0.0 mm 0.03 in0.8 mm
08:45 PM 34.0°F1.1°C 33.0°F0.6°C 96% 3.0 mph S4.8 kmh S 6.0 mph9.7 kmh 30.03 in1016.9 mb 0.02 in0.5 mm 0.00 in0.0 mm 0.03 in0.8 mm
09:00 PM 33.8°F1.0°C 32.8°F0.4°C 96% 1.0 mph SSE1.6 kmh SSE 2.0 mph3.2 kmh 30.03 in1016.9 mb 0.01 in0.3 mm 0.00 in0.0 mm 0.03 in0.8 mm
09:15 PM 33.7°F0.9°C 32.7°F0.4°C 96% Calm Calm 2.0 mph3.2 kmh 30.03 in1016.9 mb 0.01 in0.3 mm 0.00 in0.0 mm 0.03 in0.8 mm
09:30 PM 33.5°F0.8°C 32.5°F0.3°C 96% Calm Calm -- 30.03 in1016.9 mb 0.00 in0.0 mm 0.00 in0.0 mm 0.03 in0.8 mm
09:45 PM 33.7°F0.9°C 32.7°F0.4°C 96% Calm Calm -- 30.03 in1016.9 mb 0.00 in0.0 mm 0.00 in0.0 mm 0.03 in0.8 mm
10:00 PM 34.0°F1.1°C 33.0°F0.6°C 96% Calm Calm -- 30.03 in1016.9 mb 0.00 in0.0 mm 0.00 in0.0 mm 0.03 in0.8 mm
10:15 PM 34.6°F1.4°C 33.6°F0.9°C 96% Calm Calm -- 30.02 in1016.6 mb 0.00 in0.0 mm 0.00 in0.0 mm 0.03 in0.8 mm
10:30 PM 34.9°F1.6°C 33.9°F1.1°C 96% Calm Calm -- 30.02 in1016.6 mb 0.00 in0.0 mm 0.00 in0.0 mm 0.03 in0.8 mm
10:45 PM 35.1°F1.7°C 34.1°F1.2°C 96% Calm Calm -- 30.01 in1016.3 mb 0.00 in0.0 mm 0.00 in0.0 mm 0.03 in0.8 mm
11:00 PM 35.3°F1.8°C 34.3°F1.3°C 96% Calm Calm -- 30.01 in1016.3 mb 0.00 in0.0 mm 0.00 in0.0 mm 0.03 in0.8 mm
11:15 PM 35.5°F1.9°C 34.5°F1.4°C 96% Calm Calm -- 30.01 in1016.3 mb 0.00 in0.0 mm 0.00 in0.0 mm 0.03 in0.8 mm
11:30 PM 35.5°F1.9°C 34.5°F1.4°C 96% Calm Calm -- 30.00 in1015.9 mb 0.00 in0.0 mm 0.00 in0.0 mm 0.03 in0.8 mm
11:45 PM 34.8°F1.6°C 33.8°F1.0°C 96% Calm Calm 1.0 mph1.6 kmh 30.00 in1015.9 mb 0.00 in0.0 mm 0.00 in0.0 mm 0.03 in0.8 mm